Terminal Aerodrome Forecast
Issued by NWS

Home | Current Version | Previous Version | Text Only | Print | Product List | Glossary On
Versions: 1 2 3 4 5 6 7 8 9 10 11 12 13 14
000
FTUS42 KMLB 300539
TAFSUA
TAF
KSUA 300539Z 3006/0106 15005KT P6SM SCT080 SCT200
     FM301400 12008KT P6SM FEW025 SCT200
     FM301700 11015G21KT P6SM SCT030 SCT200
     FM010100 12009KT P6SM FEW025 BKN200=

USA.gov is the U.S. government's official web portal to all federal, state and local government web resources and services.